createdAt,value
2022-11-12T00:00:53.537Z,7.83
2022-11-12T00:03:20.738Z,7.17
2022-11-12T00:05:49.378Z,7.47
2022-11-12T00:08:16.507Z,7.73
2022-11-12T00:10:43.208Z,6.73
2022-11-12T00:13:09.894Z,6.97
2022-11-12T00:15:36.731Z,7.83
2022-11-12T00:18:03.641Z,6.63
2022-11-12T00:20:30.368Z,7.43
2022-11-12T00:22:57.030Z,7.90
2022-11-12T00:25:23.702Z,8.37
2022-11-12T00:27:50.347Z,7.27
2022-11-12T00:30:17.175Z,7.57
2022-11-12T00:32:43.860Z,7.90
2022-11-12T00:35:13.832Z,8.15
2022-11-12T00:37:40.995Z,7.57
2022-11-12T00:40:08.706Z,7.70
2022-11-12T00:42:35.560Z,8.57
2022-11-12T00:45:02.273Z,8.37
2022-11-12T00:47:28.982Z,7.20
2022-11-12T00:49:55.662Z,7.77
2022-11-12T00:52:22.551Z,7.33
2022-11-12T00:54:49.232Z,8.23
2022-11-12T00:57:15.895Z,8.37
2022-11-12T00:59:42.591Z,8.37
2022-11-12T01:02:10.416Z,7.13
2022-11-12T01:04:37.078Z,7.20
2022-11-12T01:07:03.798Z,8.20
2022-11-12T01:09:30.434Z,7.67
2022-11-12T01:11:57.108Z,8.97
2022-11-12T01:14:23.825Z,8.07
2022-11-12T01:16:50.494Z,9.30
2022-11-12T01:19:17.186Z,7.77
2022-11-12T01:21:44.762Z,8.33
2022-11-12T01:24:11.813Z,9.73
2022-11-12T01:26:38.962Z,7.70
2022-11-12T01:29:06.126Z,7.07
2022-11-12T01:31:36.113Z,7.47
2022-11-12T01:34:09.026Z,8.10
2022-11-12T01:36:39.981Z,7.87
2022-11-12T01:39:08.408Z,7.77
2022-11-12T01:41:37.903Z,7.10
2022-11-12T01:44:12.179Z,7.23
2022-11-12T01:46:50.238Z,8.40
2022-11-12T01:49:26.607Z,6.57
2022-11-12T01:51:56.977Z,6.83
2022-11-12T01:54:25.503Z,6.57
2022-11-12T01:56:52.517Z,6.77
2022-11-12T01:59:25.281Z,5.60
2022-11-12T02:01:52.055Z,6.77
2022-11-12T02:04:19.843Z,6.00
2022-11-12T02:06:48.006Z,6.00
2022-11-12T02:09:14.991Z,5.40
2022-11-12T02:11:41.706Z,5.63
2022-11-12T02:14:08.582Z,5.70
2022-11-12T02:16:41.139Z,5.53
2022-11-12T02:19:11.170Z,6.27
2022-11-12T02:21:37.878Z,5.17
2022-11-12T02:24:24.498Z,5.13
2022-11-12T02:26:54.455Z,5.07
2022-11-12T02:29:21.895Z,5.10
2022-11-12T02:31:48.571Z,8.27
2022-11-12T02:34:15.190Z,5.07
2022-11-12T02:36:41.873Z,4.77
2022-11-12T02:39:08.541Z,5.03
2022-11-12T02:41:35.165Z,5.20
2022-11-12T02:44:01.831Z,4.97
2022-11-12T02:46:28.495Z,5.17
2022-11-12T02:48:55.208Z,6.00
2022-11-12T02:51:21.844Z,6.70
2022-11-12T02:53:48.481Z,6.07
2022-11-12T02:56:15.279Z,5.30
2022-11-12T02:58:41.950Z,5.33
2022-11-12T03:01:08.727Z,5.67
2022-11-12T03:03:35.429Z,5.67
2022-11-12T03:06:02.356Z,5.83
2022-11-12T03:08:29.300Z,5.10
2022-11-12T03:10:56.126Z,5.13
2022-11-12T03:13:22.788Z,5.47
2022-11-12T03:15:49.477Z,6.63
2022-11-12T03:18:16.369Z,5.43
2022-11-12T03:20:43.107Z,5.50
2022-11-12T03:23:11.197Z,5.27
2022-11-12T03:25:38.650Z,5.20
2022-11-12T03:28:11.165Z,5.47
2022-11-12T03:30:39.820Z,6.53
2022-11-12T03:33:08.031Z,5.47
2022-11-12T03:35:35.793Z,5.90
2022-11-12T03:38:03.046Z,5.87
2022-11-12T03:40:30.580Z,6.23
2022-11-12T03:42:57.335Z,6.67
2022-11-12T03:45:26.639Z,6.37
2022-11-12T03:47:55.934Z,5.57
2022-11-12T03:50:25.276Z,6.60
2022-11-12T03:52:54.792Z,5.77
2022-11-12T03:55:22.961Z,5.07
2022-11-12T03:57:50.816Z,5.13
2022-11-12T04:00:18.504Z,5.50
2022-11-12T04:02:45.454Z,6.00
2022-11-12T04:05:31.091Z,5.70
2022-11-12T04:08:30.859Z,5.30
2022-11-12T04:10:57.577Z,5.27
2022-11-12T04:13:30.239Z,6.80
2022-11-12T04:16:26.343Z,5.33
2022-11-12T04:19:14.387Z,5.80
2022-11-12T04:21:55.379Z,5.57
2022-11-12T04:24:42.042Z,5.67
2022-11-12T04:27:11.128Z,5.33
2022-11-12T04:29:56.521Z,5.37
2022-11-12T04:32:23.281Z,6.33
2022-11-12T04:34:50.058Z,5.73
2022-11-12T04:37:22.385Z,7.10
2022-11-12T04:39:50.605Z,5.60
2022-11-12T04:42:35.948Z,6.57
2022-11-12T04:45:04.981Z,6.00
2022-11-12T04:47:37.546Z,5.70
2022-11-12T04:50:08.011Z,5.50
2022-11-12T04:52:34.683Z,6.90
2022-11-12T04:55:01.457Z,6.00
2022-11-12T04:57:28.199Z,5.30
2022-11-12T04:59:54.973Z,5.20
2022-11-12T05:02:21.957Z,6.67
2022-11-12T05:04:48.913Z,5.43
2022-11-12T05:07:16.606Z,5.13
2022-11-12T05:09:43.750Z,5.53
2022-11-12T05:12:10.482Z,5.80
2022-11-12T05:14:37.163Z,5.10
2022-11-12T05:17:04.034Z,5.20
2022-11-12T05:19:30.931Z,4.83
2022-11-12T05:22:06.577Z,6.70
2022-11-12T05:24:42.706Z,4.70
2022-11-12T05:27:14.754Z,6.10
2022-11-12T05:29:41.870Z,5.50
2022-11-12T05:32:10.623Z,4.73
2022-11-12T05:34:37.382Z,5.33
2022-11-12T05:37:05.909Z,5.67
2022-11-12T05:39:32.572Z,6.17
2022-11-12T05:42:12.857Z,5.30
2022-11-12T05:44:40.644Z,5.30
2022-11-12T05:47:07.467Z,5.33
2022-11-12T05:49:34.130Z,5.30
2022-11-12T05:52:00.783Z,5.13
2022-11-12T05:54:27.533Z,6.17
2022-11-12T05:56:54.377Z,5.50
2022-11-12T05:59:22.139Z,5.67
2022-11-12T06:01:48.867Z,4.70
2022-11-12T06:04:16.459Z,5.10
2022-11-12T06:06:44.067Z,4.90
2022-11-12T06:09:11.020Z,5.23
2022-11-12T06:11:38.574Z,5.93
2022-11-12T06:14:05.548Z,6.57
2022-11-12T06:16:32.907Z,6.67
2022-11-12T06:18:59.768Z,5.43
2022-11-12T06:21:27.746Z,5.30
2022-11-12T06:23:59.236Z,8.07
2022-11-12T06:26:28.293Z,5.17
2022-11-12T06:28:55.426Z,5.20
2022-11-12T06:31:23.041Z,5.20
2022-11-12T06:33:50.091Z,6.03
2022-11-12T06:36:19.301Z,4.90
2022-11-12T06:38:46.440Z,6.67
2022-11-12T06:41:13.964Z,4.70
2022-11-12T06:43:41.586Z,5.37
2022-11-12T06:46:14.093Z,6.73
2022-11-12T06:48:41.417Z,5.33
2022-11-12T06:51:17.200Z,6.67
2022-11-12T06:53:44.172Z,5.50
2022-11-12T06:56:11.377Z,6.23
2022-11-12T06:58:38.474Z,6.33
2022-11-12T07:01:11.599Z,5.63
2022-11-12T07:03:40.113Z,5.80
2022-11-12T07:06:09.513Z,6.93
2022-11-12T07:08:37.182Z,6.40
2022-11-12T07:11:04.892Z,6.07
2022-11-12T07:13:33.605Z,6.47
2022-11-12T07:16:01.131Z,5.70
2022-11-12T07:18:28.891Z,5.70
2022-11-12T07:21:00.558Z,5.63
2022-11-12T07:23:28.090Z,6.03
2022-11-12T07:26:03.274Z,7.33
2022-11-12T07:28:30.551Z,6.80
2022-11-12T07:31:02.753Z,7.97
2022-11-12T07:33:30.729Z,5.97
2022-11-12T07:36:02.672Z,5.37
2022-11-12T07:38:30.602Z,5.63
2022-11-12T07:41:01.336Z,5.83
2022-11-12T07:43:29.608Z,6.63
2022-11-12T07:46:10.755Z,5.53
2022-11-12T07:48:38.770Z,8.03
2022-11-12T07:51:08.319Z,5.50
2022-11-12T07:53:34.986Z,6.07
2022-11-12T07:56:04.559Z,6.17
2022-11-12T07:58:33.038Z,5.97
2022-11-12T08:01:27.313Z,5.43
2022-11-12T08:03:54.067Z,6.00
2022-11-12T08:06:21.516Z,5.43
2022-11-12T08:08:48.339Z,5.90
2022-11-12T08:11:14.989Z,6.23
2022-11-12T08:13:41.653Z,6.10
2022-11-12T08:16:08.384Z,6.10
2022-11-12T08:18:35.105Z,6.70
2022-11-12T08:21:07.583Z,6.17
2022-11-12T08:23:35.231Z,6.17
2022-11-12T08:26:04.380Z,7.07
2022-11-12T08:28:32.770Z,6.20
2022-11-12T08:31:10.716Z,7.67
2022-11-12T08:33:38.210Z,6.60
2022-11-12T08:36:06.529Z,10.30
2022-11-12T08:38:33.300Z,6.43
2022-11-12T08:41:11.047Z,7.70
2022-11-12T08:43:39.106Z,7.53
2022-11-12T08:46:06.044Z,6.93
2022-11-12T08:48:34.449Z,6.00
2022-11-12T08:51:02.609Z,6.63
2022-11-12T08:53:29.345Z,7.20
2022-11-12T08:55:57.358Z,6.83
2022-11-12T08:58:25.352Z,7.27
2022-11-12T09:00:53.175Z,6.47
2022-11-12T09:03:22.238Z,8.43
2022-11-12T09:05:49.842Z,7.53
2022-11-12T09:08:19.924Z,7.63
2022-11-12T09:10:46.763Z,8.13
2022-11-12T09:13:18.366Z,9.97
2022-11-12T09:15:45.977Z,7.93
2022-11-12T09:18:17.340Z,6.07
2022-11-12T09:20:44.168Z,9.90
2022-11-12T09:23:13.319Z,7.83
2022-11-12T09:25:41.463Z,8.47
2022-11-12T09:28:16.346Z,9.57
2022-11-12T09:30:48.664Z,7.33
2022-11-12T09:33:18.700Z,8.47
2022-11-12T09:35:46.325Z,8.47
2022-11-12T09:38:15.150Z,8.13
2022-11-12T09:40:56.812Z,8.23
2022-11-12T09:43:54.288Z,10.57
2022-11-12T09:46:28.860Z,9.27
2022-11-12T09:49:28.459Z,11.47
2022-11-12T09:52:04.470Z,13.07
2022-11-12T09:54:33.121Z,9.07
2022-11-12T09:56:59.799Z,9.73
2022-11-12T09:59:30.213Z,8.53
2022-11-12T10:02:31.113Z,12.40
2022-11-12T10:05:26.631Z,8.50
2022-11-12T10:08:01.023Z,7.93
2022-11-12T10:10:47.063Z,10.20
2022-11-12T10:13:34.836Z,9.33
2022-11-12T10:16:58.295Z,9.80
2022-11-12T10:19:58.607Z,9.83
2022-11-12T10:22:53.815Z,8.67
2022-11-12T10:25:20.962Z,8.60
2022-11-12T10:27:49.238Z,10.43
2022-11-12T10:30:21.859Z,9.53
2022-11-12T10:32:50.368Z,8.90
2022-11-12T10:35:20.713Z,9.67
2022-11-12T10:38:06.462Z,9.37
2022-11-12T10:40:41.284Z,11.77
2022-11-12T10:43:16.964Z,7.67
2022-11-12T10:45:45.278Z,11.23
2022-11-12T10:48:32.988Z,10.20
2022-11-12T10:51:00.788Z,8.23
2022-11-12T10:53:34.644Z,9.03
2022-11-12T10:56:04.137Z,8.63
2022-11-12T10:58:31.141Z,9.13
2022-11-12T11:01:07.320Z,7.53
2022-11-12T11:03:36.218Z,8.00
2022-11-12T11:06:07.722Z,7.93
2022-11-12T11:08:40.415Z,8.67
2022-11-12T11:11:29.863Z,15.07
2022-11-12T11:14:08.483Z,9.40
2022-11-12T11:16:54.439Z,9.70
2022-11-12T11:19:21.116Z,8.57
2022-11-12T11:21:50.904Z,9.40
2022-11-12T11:24:17.546Z,8.30
2022-11-12T11:27:05.722Z,8.93
2022-11-12T11:29:44.453Z,11.10
2022-11-12T11:32:26.060Z,10.17
2022-11-12T11:35:20.522Z,8.23
2022-11-12T11:38:25.692Z,9.73
2022-11-12T11:41:04.518Z,9.37
2022-11-12T11:43:34.009Z,8.07
2022-11-12T11:46:19.975Z,9.23
2022-11-12T11:49:07.516Z,8.53
2022-11-12T11:51:46.386Z,10.23
2022-11-12T11:54:44.846Z,9.40
2022-11-12T11:57:16.700Z,7.87
2022-11-12T12:00:01.356Z,12.10
2022-11-12T12:02:52.248Z,9.13
2022-11-12T12:05:29.078Z,9.53
2022-11-12T12:08:03.435Z,7.90
2022-11-12T12:11:07.430Z,10.03
2022-11-12T12:13:43.928Z,10.97
2022-11-12T12:16:13.444Z,10.17
2022-11-12T12:18:55.986Z,10.80
2022-11-12T12:21:26.439Z,9.30
2022-11-12T12:24:10.435Z,11.43
2022-11-12T12:26:44.118Z,9.87
2022-11-12T12:29:37.184Z,9.47
2022-11-12T12:32:40.865Z,10.03
2022-11-12T12:35:23.834Z,14.03
2022-11-12T12:38:04.394Z,9.03
2022-11-12T12:40:52.650Z,12.63
2022-11-12T12:43:29.026Z,11.30
2022-11-12T12:45:58.069Z,10.53
2022-11-12T12:48:26.770Z,13.90
2022-11-12T12:50:54.038Z,15.83
2022-11-12T12:53:29.887Z,8.60
2022-11-12T12:55:59.160Z,11.23
2022-11-12T12:58:40.827Z,14.47
2022-11-12T13:01:32.680Z,11.17
2022-11-12T13:04:08.590Z,9.53
2022-11-12T13:06:37.827Z,14.23
2022-11-12T13:09:12.179Z,13.17
2022-11-12T13:12:00.493Z,13.47
2022-11-12T13:14:36.256Z,14.37
2022-11-12T13:17:07.074Z,14.93
2022-11-12T13:19:36.572Z,12.33
2022-11-12T13:22:18.538Z,12.53
2022-11-12T13:25:09.791Z,14.33
2022-11-12T13:27:39.595Z,15.37
2022-11-12T13:30:18.243Z,13.23
2022-11-12T13:32:48.019Z,12.83
2022-11-12T13:35:23.231Z,12.67
2022-11-12T13:38:08.015Z,10.83
2022-11-12T13:40:55.583Z,12.27
2022-11-12T13:43:25.667Z,12.50
2022-11-12T13:46:11.025Z,12.43
2022-11-12T13:48:47.890Z,13.10
2022-11-12T13:51:29.393Z,11.07
2022-11-12T13:53:56.086Z,13.27
2022-11-12T13:56:34.483Z,12.00
2022-11-12T13:59:15.470Z,14.40
2022-11-12T14:01:43.185Z,14.40
2022-11-12T14:04:23.837Z,10.87
2022-11-12T14:06:54.003Z,13.90
2022-11-12T14:09:32.877Z,15.07
2022-11-12T14:12:09.090Z,16.20
2022-11-12T14:15:12.599Z,14.23
2022-11-12T14:18:07.730Z,12.23
2022-11-12T14:20:39.664Z,14.90
2022-11-12T14:23:14.184Z,13.63
2022-11-12T14:25:48.217Z,14.70
2022-11-12T14:28:34.701Z,12.67
2022-11-12T14:31:04.012Z,17.40
2022-11-12T14:33:32.247Z,13.83
2022-11-12T14:36:25.411Z,16.13
2022-11-12T14:38:58.178Z,14.73
2022-11-12T14:41:31.061Z,15.87
2022-11-12T14:44:13.236Z,13.83
2022-11-12T14:46:53.971Z,16.53
2022-11-12T14:49:44.497Z,14.23
2022-11-12T14:52:26.845Z,18.00
2022-11-12T14:54:57.726Z,14.13
2022-11-12T14:57:27.820Z,14.50
2022-11-12T14:59:55.709Z,18.27
2022-11-12T15:02:48.895Z,17.17
2022-11-12T15:05:21.297Z,13.63
2022-11-12T15:07:56.069Z,13.67
2022-11-12T15:10:35.066Z,13.10
2022-11-12T15:13:23.498Z,14.00
2022-11-12T15:16:00.970Z,13.93
2022-11-12T15:18:30.370Z,16.33
2022-11-12T15:21:12.032Z,14.10
2022-11-12T15:23:56.668Z,12.87
2022-11-12T15:26:38.551Z,10.80
2022-11-12T15:29:10.960Z,14.30
2022-11-12T15:31:58.437Z,11.60
2022-11-12T15:34:41.684Z,11.00
2022-11-12T15:37:19.782Z,11.10
2022-11-12T15:39:52.371Z,13.47
2022-11-12T15:42:30.623Z,11.90
2022-11-12T15:45:00.499Z,10.33
2022-11-12T15:47:27.812Z,10.80
2022-11-12T15:49:56.854Z,11.77
2022-11-12T15:52:23.540Z,11.37
2022-11-12T15:54:50.389Z,10.60
2022-11-12T15:57:21.067Z,13.77
2022-11-12T16:00:23.912Z,12.47
2022-11-12T16:03:15.079Z,12.70
2022-11-12T16:05:42.826Z,11.07
2022-11-12T16:08:10.275Z,10.97
2022-11-12T16:10:39.520Z,11.70
2022-11-12T16:13:08.065Z,12.13
2022-11-12T16:15:34.853Z,11.03
2022-11-12T16:18:01.530Z,14.50
2022-11-12T16:20:31.950Z,11.50
2022-11-12T16:22:58.939Z,12.27
2022-11-12T16:25:29.803Z,11.97
2022-11-12T16:27:57.883Z,16.60
2022-11-12T16:30:40.846Z,13.33
2022-11-12T16:33:11.283Z,15.83
2022-11-12T16:35:38.085Z,13.00
2022-11-12T16:38:14.818Z,14.43
2022-11-12T16:40:41.983Z,13.10
2022-11-12T16:43:08.671Z,12.90
2022-11-12T16:45:39.375Z,15.97
2022-11-12T16:48:21.318Z,12.97
2022-11-12T16:50:48.744Z,10.67
2022-11-12T16:53:15.377Z,13.07
2022-11-12T16:55:42.451Z,17.33
2022-11-12T16:58:13.879Z,12.20
2022-11-12T17:00:44.197Z,12.93
2022-11-12T17:03:14.133Z,13.97
2022-11-12T17:05:40.869Z,17.37
2022-11-12T17:08:09.455Z,14.03
2022-11-12T17:10:36.312Z,12.33
2022-11-12T17:13:02.992Z,15.10
2022-11-12T17:15:29.704Z,12.87
2022-11-12T17:17:56.448Z,15.17
2022-11-12T17:20:23.204Z,15.43
2022-11-12T17:22:49.866Z,16.10
2022-11-12T17:25:16.737Z,17.07
2022-11-12T17:27:43.427Z,15.50
2022-11-12T17:30:11.856Z,14.00
2022-11-12T17:32:38.533Z,15.33
2022-11-12T17:35:05.704Z,14.00
2022-11-12T17:37:32.367Z,18.07
2022-11-12T17:39:59.019Z,21.70
2022-11-12T17:42:25.714Z,24.87
2022-11-12T17:44:52.406Z,27.93
2022-11-12T17:47:19.036Z,28.47
2022-11-12T17:49:45.656Z,25.43
2022-11-12T17:52:12.375Z,24.17
2022-11-12T17:54:39.079Z,27.33
2022-11-12T17:57:05.755Z,23.57
2022-11-12T17:59:32.427Z,31.37
2022-11-12T18:01:59.170Z,28.70
2022-11-12T18:04:29.887Z,31.40
2022-11-12T18:06:57.636Z,29.23
2022-11-12T18:09:24.297Z,25.40
2022-11-12T18:11:56.458Z,32.33
2022-11-12T18:14:23.252Z,34.57
2022-11-12T18:16:49.990Z,27.20
2022-11-12T18:19:16.704Z,26.70
2022-11-12T18:21:43.371Z,22.87
2022-11-12T18:24:15.264Z,23.93
2022-11-12T18:26:42.916Z,28.83
2022-11-12T18:29:09.639Z,24.53
2022-11-12T18:31:36.306Z,28.27
2022-11-12T18:34:03.100Z,28.60
2022-11-12T18:36:29.800Z,32.53
2022-11-12T18:38:56.747Z,27.70
2022-11-12T18:41:26.808Z,30.60
2022-11-12T18:43:54.079Z,25.20
2022-11-12T18:46:22.929Z,23.20
2022-11-12T18:48:50.042Z,23.53
2022-11-12T18:51:18.294Z,30.33
2022-11-12T18:53:46.099Z,25.30
2022-11-12T18:56:15.179Z,28.07
2022-11-12T18:58:42.226Z,27.90
2022-11-12T19:01:21.357Z,27.60
2022-11-12T19:03:52.873Z,28.03
2022-11-12T19:06:21.517Z,33.03
2022-11-12T19:08:48.394Z,29.13
2022-11-12T19:11:18.598Z,26.10
2022-11-12T19:16:30.731Z,27.70
2022-11-12T19:18:57.447Z,26.97
2022-11-12T19:21:26.038Z,24.43
2022-11-12T19:23:55.085Z,25.70
2022-11-12T19:26:23.590Z,26.40
2022-11-12T19:28:50.584Z,23.50
2022-11-12T19:31:20.147Z,25.43
2022-11-12T19:33:47.504Z,23.90
2022-11-12T19:36:20.636Z,27.23
2022-11-12T19:38:47.477Z,28.57
2022-11-12T19:41:19.872Z,24.60
2022-11-12T19:43:47.190Z,26.87
2022-11-12T19:46:14.770Z,25.00
2022-11-12T19:48:41.708Z,31.17
2022-11-12T19:51:09.944Z,25.50
2022-11-12T19:53:40.858Z,27.57
2022-11-12T19:56:08.093Z,24.83
2022-11-12T19:58:34.900Z,24.40
2022-11-12T20:01:10.495Z,25.53
2022-11-12T20:03:38.139Z,26.80
2022-11-12T20:06:10.250Z,23.10
2022-11-12T20:08:37.851Z,24.50
2022-11-12T20:11:05.104Z,23.57
2022-11-12T20:13:32.046Z,24.70
2022-11-12T20:15:59.300Z,23.03
2022-11-12T20:18:26.947Z,24.77
2022-11-12T20:20:56.556Z,24.73
2022-11-12T20:23:24.255Z,24.93
2022-11-12T20:25:52.331Z,26.07
2022-11-12T20:28:19.130Z,26.47
2022-11-12T20:30:46.070Z,27.93
2022-11-12T20:33:13.477Z,28.57
2022-11-12T20:35:40.184Z,26.77
2022-11-12T20:38:06.852Z,32.13
2022-11-12T20:40:33.514Z,30.90
2022-11-12T20:43:00.254Z,30.00
2022-11-12T20:45:27.323Z,28.33
2022-11-12T20:47:56.080Z,28.83
2022-11-12T20:50:23.212Z,30.83
2022-11-12T20:52:49.989Z,32.40
2022-11-12T20:55:17.051Z,33.13
2022-11-12T20:57:43.811Z,31.87
2022-11-12T21:00:13.941Z,35.10
2022-11-12T21:02:41.869Z,39.23
2022-11-12T21:05:08.631Z,27.17
2022-11-12T21:07:35.412Z,26.63
2022-11-12T21:10:02.404Z,25.90
2022-11-12T21:12:30.911Z,24.17
2022-11-12T21:14:57.608Z,22.10
2022-11-12T21:17:24.260Z,19.43
2022-11-12T21:19:50.927Z,19.37
2022-11-12T21:22:17.720Z,20.03
2022-11-12T21:24:44.356Z,19.50
2022-11-12T21:27:12.099Z,20.17
2022-11-12T21:29:38.845Z,19.90
2022-11-12T21:32:05.984Z,21.97
2022-11-12T21:34:32.715Z,27.07
2022-11-12T21:37:00.641Z,27.67
2022-11-12T21:39:27.343Z,31.43
2022-11-12T21:41:54.849Z,27.53
2022-11-12T21:44:21.545Z,31.17
2022-11-12T21:46:48.387Z,28.13
2022-11-12T21:49:14.999Z,27.07
2022-11-12T21:51:41.684Z,30.73
2022-11-12T21:54:09.003Z,25.87
2022-11-12T21:56:37.618Z,31.97
2022-11-12T21:59:04.503Z,30.50
2022-11-12T22:01:34.331Z,28.37
2022-11-12T22:04:01.143Z,22.77
2022-11-12T22:06:29.670Z,25.47
2022-11-12T22:08:58.204Z,23.37
2022-11-12T22:11:27.653Z,28.87
2022-11-12T22:13:54.657Z,22.60
2022-11-12T22:16:23.635Z,23.60
2022-11-12T22:18:52.927Z,26.27
2022-11-12T22:21:24.906Z,24.17
2022-11-12T22:23:52.036Z,22.60
2022-11-12T22:26:21.891Z,22.83
2022-11-12T22:28:48.790Z,21.47
2022-11-12T22:31:21.153Z,30.17
2022-11-12T22:33:48.586Z,24.57
2022-11-12T22:36:18.430Z,24.63
2022-11-12T22:38:46.685Z,23.60
2022-11-12T22:41:25.428Z,29.03
2022-11-12T22:44:02.141Z,21.67
2022-11-12T22:46:31.560Z,21.37
2022-11-12T22:48:59.086Z,20.57
2022-11-12T22:51:28.104Z,21.73
2022-11-12T22:54:00.200Z,24.63
2022-11-12T22:56:27.860Z,21.40
2022-11-12T22:58:55.354Z,22.43
2022-11-12T23:01:25.067Z,25.90
2022-11-12T23:03:56.929Z,18.70
2022-11-12T23:06:24.785Z,22.13
2022-11-12T23:08:53.166Z,20.43
2022-11-12T23:11:20.758Z,20.07
2022-11-12T23:13:48.581Z,22.33
2022-11-12T23:16:17.752Z,18.47
2022-11-12T23:18:45.098Z,21.67
2022-11-12T23:21:18.086Z,20.50
2022-11-12T23:23:44.811Z,22.90
2022-11-12T23:26:19.768Z,22.10
2022-11-12T23:28:46.616Z,21.87
2022-11-12T23:31:16.490Z,20.53
2022-11-12T23:33:48.413Z,20.30
2022-11-12T23:36:15.780Z,18.47
2022-11-12T23:38:42.837Z,23.80
2022-11-12T23:41:18.461Z,19.97
2022-11-12T23:43:45.290Z,20.53
2022-11-12T23:46:12.370Z,20.00
2022-11-12T23:48:39.072Z,19.93
2022-11-12T23:51:09.861Z,18.57
2022-11-12T23:53:38.075Z,17.77
2022-11-12T23:56:06.901Z,19.83
2022-11-12T23:58:33.789Z,17.97
